SKSP

Gustavo Rojas Pinilla International Airport

San Andrés, Colombia
TAF SKSP 181100Z 1812/1912 07012KT 9999 FEW015 TEMPO 1820/1824 8000 DZRA SCT015TCU TX31/1819Z TN26/1911Z
Issued Valid From Valid To
Jun-18 @ 11:00 UTC
(2 hours ago)
Jun-18 @ 12:00 UTC
(an hour ago)
Jun-19 @ 12:00 UTC
(in 23 hours)
Jun-18 @ 12:00 to Jun-19 @ 12:00
TAF SKSP 181100Z 1812/1912 07012KT 9999 FEW015
Wind Visibility Clouds
70° at 12 knots 10,000+ meters
  • Few at 1,500' AGL
Temporary Jun-18 @ 20:00 to Jun-19 @ 00:00
TEMPO 1820/1824 8000 DZRA SCT015TCU TX31/1819Z TN26/1911Z
Visibility Clouds Conditions
7,998 meters
  • Scattered at 1,500' AGL
  • Drizzle
  • Rain
TAF SKSP 181100Z 1812/1912 07012KT 9999 FEW015 TEMPO 1820/1824 8000 DZRA SCT015TCU TX31/1819Z TN26/1911Z
Issued Jun-18 @ 11:00 UTC
(2 hours ago)
Valid From Jun-18 @ 12:00 UTC
(an hour ago)
Valid To Jun-19 @ 12:00 UTC
(in 23 hours)
Jun-18 @ 12:00 - Jun-19 @ 12:00
Wind Visibility
70° at 12 knots 10,000+ meters
Clouds
  • Few at 1,500' AGL
Temporary Jun-18 @ 20:00 - Jun-19 @ 00:00
Clouds
  • Scattered at 1,500' AGL
Conditions
  • Drizzle
  • Rain